sensor_id;sensor_type;location;lat;lon;timestamp;P1;durP1;ratioP1;P2;durP2;ratioP2
38609;SDS011;24367;51.640;9.566;2023-05-06T00:00:06;2.30;;;1.67;;
38609;SDS011;24367;51.640;9.566;2023-05-06T00:02:42;2.70;;;1.60;;
38609;SDS011;24367;51.640;9.566;2023-05-06T00:05:08;2.80;;;1.95;;
38609;SDS011;24367;51.640;9.566;2023-05-06T00:07:35;2.10;;;1.77;;
38609;SDS011;24367;51.640;9.566;2023-05-06T00:10:01;2.58;;;1.70;;
38609;SDS011;24367;51.640;9.566;2023-05-06T00:12:28;2.70;;;1.90;;
38609;SDS011;24367;51.640;9.566;2023-05-06T00:14:54;2.85;;;1.90;;
38609;SDS011;24367;51.640;9.566;2023-05-06T00:17:21;3.75;;;1.90;;
38609;SDS011;24367;51.640;9.566;2023-05-06T00:19:48;2.60;;;1.90;;
38609;SDS011;24367;51.640;9.566;2023-05-06T00:22:16;2.28;;;1.80;;
38609;SDS011;24367;51.640;9.566;2023-05-06T00:24:42;2.17;;;1.65;;
38609;SDS011;24367;51.640;9.566;2023-05-06T00:27:09;2.53;;;1.60;;
38609;SDS011;24367;51.640;9.566;2023-05-06T00:29:35;2.58;;;1.85;;
38609;SDS011;24367;51.640;9.566;2023-05-06T00:32:01;2.38;;;1.63;;
38609;SDS011;24367;51.640;9.566;2023-05-06T00:34:28;2.22;;;1.65;;
38609;SDS011;24367;51.640;9.566;2023-05-06T00:36:56;2.38;;;1.45;;
38609;SDS011;24367;51.640;9.566;2023-05-06T00:39:23;2.28;;;1.58;;
38609;SDS011;24367;51.640;9.566;2023-05-06T00:41:49;2.42;;;1.77;;
38609;SDS011;24367;51.640;9.566;2023-05-06T00:44:16;2.83;;;1.50;;
38609;SDS011;24367;51.640;9.566;2023-05-06T00:46:42;2.92;;;1.67;;
38609;SDS011;24367;51.640;9.566;2023-05-06T00:49:09;2.45;;;1.90;;
38609;SDS011;24367;51.640;9.566;2023-05-06T00:51:36;2.10;;;1.48;;
38609;SDS011;24367;51.640;9.566;2023-05-06T00:54:04;2.50;;;1.70;;
38609;SDS011;24367;51.640;9.566;2023-05-06T00:56:31;2.38;;;1.70;;
38609;SDS011;24367;51.640;9.566;2023-05-06T00:58:58;2.97;;;1.88;;
38609;SDS011;24367;51.640;9.566;2023-05-06T01:01:24;1.77;;;1.50;;
38609;SDS011;24367;51.640;9.566;2023-05-06T01:03:52;2.00;;;1.42;;
38609;SDS011;24367;51.640;9.566;2023-05-06T01:06:23;2.05;;;1.35;;
38609;SDS011;24367;51.640;9.566;2023-05-06T01:08:53;1.80;;;1.23;;
38609;SDS011;24367;51.640;9.566;2023-05-06T01:11:26;1.70;;;1.42;;
38609;SDS011;24367;51.640;9.566;2023-05-06T01:13:55;2.50;;;1.60;;
38609;SDS011;24367;51.640;9.566;2023-05-06T01:16:24;2.55;;;1.77;;
38609;SDS011;24367;51.640;9.566;2023-05-06T01:18:54;1.92;;;1.52;;
38609;SDS011;24367;51.640;9.566;2023-05-06T01:21:23;2.15;;;1.58;;
38609;SDS011;24367;51.640;9.566;2023-05-06T01:24:00;2.30;;;1.55;;
38609;SDS011;24367;51.640;9.566;2023-05-06T01:26:26;2.10;;;1.60;;
38609;SDS011;24367;51.640;9.566;2023-05-06T01:28:53;2.85;;;1.70;;
38609;SDS011;24367;51.640;9.566;2023-05-06T01:31:22;2.65;;;1.88;;
38609;SDS011;24367;51.640;9.566;2023-05-06T01:33:53;2.63;;;1.77;;
38609;SDS011;24367;51.640;9.566;2023-05-06T01:38:54;2.08;;;1.60;;
38609;SDS011;24367;51.640;9.566;2023-05-06T01:41:25;2.47;;;1.60;;
38609;SDS011;24367;51.640;9.566;2023-05-06T01:43:52;1.83;;;1.42;;
38609;SDS011;24367;51.640;9.566;2023-05-06T01:46:19;1.85;;;1.23;;
38609;SDS011;24367;51.640;9.566;2023-05-06T01:48:48;2.08;;;1.67;;
38609;SDS011;24367;51.640;9.566;2023-05-06T01:51:15;1.85;;;1.50;;
38609;SDS011;24367;51.640;9.566;2023-05-06T01:53:41;2.42;;;1.40;;
38609;SDS011;24367;51.640;9.566;2023-05-06T01:56:07;2.58;;;1.42;;
38609;SDS011;24367;51.640;9.566;2023-05-06T01:58:37;2.08;;;1.48;;
38609;SDS011;24367;51.640;9.566;2023-05-06T02:01:04;1.92;;;1.60;;
38609;SDS011;24367;51.640;9.566;2023-05-06T02:03:31;1.80;;;1.48;;
38609;SDS011;24367;51.640;9.566;2023-05-06T02:05:57;1.80;;;1.38;;
38609;SDS011;24367;51.640;9.566;2023-05-06T02:08:25;1.55;;;1.17;;
38609;SDS011;24367;51.640;9.566;2023-05-06T02:10:52;2.85;;;1.42;;
38609;SDS011;24367;51.640;9.566;2023-05-06T02:13:19;2.00;;;1.48;;
38609;SDS011;24367;51.640;9.566;2023-05-06T02:15:47;2.05;;;1.50;;
38609;SDS011;24367;51.640;9.566;2023-05-06T02:18:18;2.55;;;1.60;;
38609;SDS011;24367;51.640;9.566;2023-05-06T02:20:44;2.08;;;1.30;;
38609;SDS011;24367;51.640;9.566;2023-05-06T02:23:14;2.00;;;1.45;;
38609;SDS011;24367;51.640;9.566;2023-05-06T02:25:41;2.03;;;1.40;;
38609;SDS011;24367;51.640;9.566;2023-05-06T02:28:07;2.40;;;1.70;;
38609;SDS011;24367;51.640;9.566;2023-05-06T02:30:33;2.08;;;1.50;;
38609;SDS011;24367;51.640;9.566;2023-05-06T02:33:02;1.98;;;1.40;;
38609;SDS011;24367;51.640;9.566;2023-05-06T02:35:28;1.88;;;1.35;;
38609;SDS011;24367;51.640;9.566;2023-05-06T02:37:54;1.90;;;1.30;;
38609;SDS011;24367;51.640;9.566;2023-05-06T02:40:21;1.75;;;1.40;;
38609;SDS011;24367;51.640;9.566;2023-05-06T02:42:47;1.70;;;1.20;;
38609;SDS011;24367;51.640;9.566;2023-05-06T02:45:14;2.05;;;1.42;;
38609;SDS011;24367;51.640;9.566;2023-05-06T02:47:40;2.00;;;1.25;;
38609;SDS011;24367;51.640;9.566;2023-05-06T02:50:08;1.77;;;1.35;;
38609;SDS011;24367;51.640;9.566;2023-05-06T02:52:35;1.67;;;1.30;;
38609;SDS011;24367;51.640;9.566;2023-05-06T02:55:01;1.92;;;1.50;;
38609;SDS011;24367;51.640;9.566;2023-05-06T02:57:28;2.50;;;1.58;;
38609;SDS011;24367;51.640;9.566;2023-05-06T02:59:54;1.88;;;1.38;;
38609;SDS011;24367;51.640;9.566;2023-05-06T03:02:21;2.22;;;1.40;;
38609;SDS011;24367;51.640;9.566;2023-05-06T03:04:47;1.83;;;1.33;;
38609;SDS011;24367;51.640;9.566;2023-05-06T03:07:15;2.10;;;1.40;;
38609;SDS011;24367;51.640;9.566;2023-05-06T03:09:42;1.80;;;1.30;;
38609;SDS011;24367;51.640;9.566;2023-05-06T03:12:09;1.70;;;1.27;;
38609;SDS011;24367;51.640;9.566;2023-05-06T03:14:36;3.08;;;1.55;;
38609;SDS011;24367;51.640;9.566;2023-05-06T03:17:03;2.22;;;1.30;;
38609;SDS011;24367;51.640;9.566;2023-05-06T03:19:32;1.58;;;1.20;;
38609;SDS011;24367;51.640;9.566;2023-05-06T03:21:59;1.58;;;1.17;;
38609;SDS011;24367;51.640;9.566;2023-05-06T03:24:27;2.20;;;1.30;;
38609;SDS011;24367;51.640;9.566;2023-05-06T03:26:53;1.45;;;1.10;;
38609;SDS011;24367;51.640;9.566;2023-05-06T03:29:20;1.92;;;1.50;;
38609;SDS011;24367;51.640;9.566;2023-05-06T03:31:47;2.00;;;1.30;;
38609;SDS011;24367;51.640;9.566;2023-05-06T03:34:15;1.50;;;1.20;;
38609;SDS011;24367;51.640;9.566;2023-05-06T03:36:43;1.50;;;1.20;;
38609;SDS011;24367;51.640;9.566;2023-05-06T03:39:09;2.70;;;1.10;;
38609;SDS011;24367;51.640;9.566;2023-05-06T03:41:38;1.80;;;1.30;;
38609;SDS011;24367;51.640;9.566;2023-05-06T03:44:06;2.10;;;1.13;;
38609;SDS011;24367;51.640;9.566;2023-05-06T03:46:32;1.95;;;1.45;;
38609;SDS011;24367;51.640;9.566;2023-05-06T03:48:59;2.42;;;1.48;;
38609;SDS011;24367;51.640;9.566;2023-05-06T03:51:27;1.73;;;1.30;;
38609;SDS011;24367;51.640;9.566;2023-05-06T03:53:53;1.55;;;1.10;;
38609;SDS011;24367;51.640;9.566;2023-05-06T03:56:20;2.25;;;1.35;;
38609;SDS011;24367;51.640;9.566;2023-05-06T03:58:51;1.58;;;1.17;;
38609;SDS011;24367;51.640;9.566;2023-05-06T04:01:18;1.63;;;1.20;;
38609;SDS011;24367;51.640;9.566;2023-05-06T04:03:46;1.83;;;1.35;;
38609;SDS011;24367;51.640;9.566;2023-05-06T04:06:13;1.70;;;1.05;;
38609;SDS011;24367;51.640;9.566;2023-05-06T04:08:40;1.58;;;1.13;;
38609;SDS011;24367;51.640;9.566;2023-05-06T04:11:07;1.40;;;1.13;;
38609;SDS011;24367;51.640;9.566;2023-05-06T04:13:35;1.60;;;1.20;;
38609;SDS011;24367;51.640;9.566;2023-05-06T04:16:07;1.52;;;1.13;;
38609;SDS011;24367;51.640;9.566;2023-05-06T04:18:38;2.60;;;1.10;;
38609;SDS011;24367;51.640;9.566;2023-05-06T04:21:09;1.63;;;1.10;;
38609;SDS011;24367;51.640;9.566;2023-05-06T04:23:36;1.88;;;1.02;;
38609;SDS011;24367;51.640;9.566;2023-05-06T04:26:03;1.50;;;1.00;;
38609;SDS011;24367;51.640;9.566;2023-05-06T04:28:31;1.55;;;1.20;;
38609;SDS011;24367;51.640;9.566;2023-05-06T04:30:58;1.80;;;1.48;;
38609;SDS011;24367;51.640;9.566;2023-05-06T04:33:35;1.40;;;1.13;;
38609;SDS011;24367;51.640;9.566;2023-05-06T04:36:07;1.60;;;1.10;;
38609;SDS011;24367;51.640;9.566;2023-05-06T04:38:35;1.58;;;1.10;;
38609;SDS011;24367;51.640;9.566;2023-05-06T04:41:03;1.98;;;1.17;;
38609;SDS011;24367;51.640;9.566;2023-05-06T04:43:30;1.60;;;1.30;;
38609;SDS011;24367;51.640;9.566;2023-05-06T04:46:04;1.30;;;1.02;;
38609;SDS011;24367;51.640;9.566;2023-05-06T04:48:33;1.60;;;1.02;;
38609;SDS011;24367;51.640;9.566;2023-05-06T04:51:01;1.30;;;1.10;;
38609;SDS011;24367;51.640;9.566;2023-05-06T04:53:29;1.60;;;1.10;;
38609;SDS011;24367;51.640;9.566;2023-05-06T04:55:56;1.55;;;1.10;;
38609;SDS011;24367;51.640;9.566;2023-05-06T04:58:23;1.40;;;1.13;;
38609;SDS011;24367;51.640;9.566;2023-05-06T05:00:50;1.40;;;0.90;;
38609;SDS011;24367;51.640;9.566;2023-05-06T05:03:16;1.60;;;1.17;;
38609;SDS011;24367;51.640;9.566;2023-05-06T05:05:44;1.45;;;1.10;;
38609;SDS011;24367;51.640;9.566;2023-05-06T05:08:15;1.80;;;1.25;;
38609;SDS011;24367;51.640;9.566;2023-05-06T05:10:41;1.77;;;1.00;;
38609;SDS011;24367;51.640;9.566;2023-05-06T05:13:10;1.30;;;0.90;;
38609;SDS011;24367;51.640;9.566;2023-05-06T05:15:37;2.55;;;1.00;;
38609;SDS011;24367;51.640;9.566;2023-05-06T05:18:05;2.90;;;1.13;;
38609;SDS011;24367;51.640;9.566;2023-05-06T05:20:31;1.63;;;1.15;;
38609;SDS011;24367;51.640;9.566;2023-05-06T05:23:01;1.60;;;0.95;;
38609;SDS011;24367;51.640;9.566;2023-05-06T05:25:27;1.77;;;1.25;;
38609;SDS011;24367;51.640;9.566;2023-05-06T05:27:54;1.20;;;1.00;;
38609;SDS011;24367;51.640;9.566;2023-05-06T05:30:20;1.58;;;1.20;;
38609;SDS011;24367;51.640;9.566;2023-05-06T05:32:47;1.27;;;0.90;;
38609;SDS011;24367;51.640;9.566;2023-05-06T05:35:15;1.20;;;0.95;;
38609;SDS011;24367;51.640;9.566;2023-05-06T05:37:42;2.67;;;1.27;;
38609;SDS011;24367;51.640;9.566;2023-05-06T05:40:11;1.98;;;1.10;;
38609;SDS011;24367;51.640;9.566;2023-05-06T05:42:39;3.30;;;1.30;;
38609;SDS011;24367;51.640;9.566;2023-05-06T05:47:40;3.13;;;0.90;;
38609;SDS011;24367;51.640;9.566;2023-05-06T05:50:08;3.72;;;1.02;;
38609;SDS011;24367;51.640;9.566;2023-05-06T05:52:35;1.58;;;1.05;;
38609;SDS011;24367;51.640;9.566;2023-05-06T05:55:02;1.55;;;1.20;;
38609;SDS011;24367;51.640;9.566;2023-05-06T05:57:31;3.15;;;0.90;;
38609;SDS011;24367;51.640;9.566;2023-05-06T05:59:57;1.60;;;1.23;;
38609;SDS011;24367;51.640;9.566;2023-05-06T06:02:25;2.35;;;1.35;;
38609;SDS011;24367;51.640;9.566;2023-05-06T06:04:51;3.45;;;1.00;;
38609;SDS011;24367;51.640;9.566;2023-05-06T06:07:18;1.50;;;1.05;;
38609;SDS011;24367;51.640;9.566;2023-05-06T06:09:45;2.17;;;1.00;;
38609;SDS011;24367;51.640;9.566;2023-05-06T06:12:13;2.53;;;1.00;;
38609;SDS011;24367;51.640;9.566;2023-05-06T06:14:41;1.50;;;1.20;;
38609;SDS011;24367;51.640;9.566;2023-05-06T06:17:12;1.58;;;1.02;;
38609;SDS011;24367;51.640;9.566;2023-05-06T06:19:39;10.73;;;1.65;;
38609;SDS011;24367;51.640;9.566;2023-05-06T06:22:06;2.72;;;0.90;;
38609;SDS011;24367;51.640;9.566;2023-05-06T06:24:33;3.25;;;1.10;;
38609;SDS011;24367;51.640;9.566;2023-05-06T06:27:00;10.43;;;1.45;;
38609;SDS011;24367;51.640;9.566;2023-05-06T06:29:26;5.28;;;1.40;;
38609;SDS011;24367;51.640;9.566;2023-05-06T06:31:54;3.90;;;1.10;;
38609;SDS011;24367;51.640;9.566;2023-05-06T06:34:22;5.80;;;1.10;;
38609;SDS011;24367;51.640;9.566;2023-05-06T06:36:48;2.17;;;1.00;;
38609;SDS011;24367;51.640;9.566;2023-05-06T06:39:15;3.83;;;1.30;;
38609;SDS011;24367;51.640;9.566;2023-05-06T06:41:41;3.53;;;1.10;;
38609;SDS011;24367;51.640;9.566;2023-05-06T06:44:07;2.65;;;1.20;;
38609;SDS011;24367;51.640;9.566;2023-05-06T06:46:34;2.47;;;0.90;;
38609;SDS011;24367;51.640;9.566;2023-05-06T06:49:02;2.53;;;1.30;;
38609;SDS011;24367;51.640;9.566;2023-05-06T06:51:28;2.97;;;1.30;;
38609;SDS011;24367;51.640;9.566;2023-05-06T06:53:55;2.33;;;1.05;;
38609;SDS011;24367;51.640;9.566;2023-05-06T06:56:22;3.67;;;1.23;;
38609;SDS011;24367;51.640;9.566;2023-05-06T06:58:48;3.60;;;1.08;;
38609;SDS011;24367;51.640;9.566;2023-05-06T07:01:14;2.40;;;1.00;;
38609;SDS011;24367;51.640;9.566;2023-05-06T07:03:41;9.43;;;1.48;;
38609;SDS011;24367;51.640;9.566;2023-05-06T07:06:08;3.80;;;1.05;;
38609;SDS011;24367;51.640;9.566;2023-05-06T07:08:35;3.00;;;1.00;;
38609;SDS011;24367;51.640;9.566;2023-05-06T07:11:01;6.70;;;1.38;;
38609;SDS011;24367;51.640;9.566;2023-05-06T07:13:28;6.30;;;1.27;;
38609;SDS011;24367;51.640;9.566;2023-05-06T07:15:54;8.65;;;1.55;;
38609;SDS011;24367;51.640;9.566;2023-05-06T07:18:20;5.03;;;1.10;;
38609;SDS011;24367;51.640;9.566;2023-05-06T07:20:47;5.35;;;1.42;;
38609;SDS011;24367;51.640;9.566;2023-05-06T07:23:15;3.30;;;1.10;;
38609;SDS011;24367;51.640;9.566;2023-05-06T07:25:41;9.55;;;1.30;;
38609;SDS011;24367;51.640;9.566;2023-05-06T07:28:07;3.08;;;1.10;;
38609;SDS011;24367;51.640;9.566;2023-05-06T07:30:36;5.18;;;1.30;;
38609;SDS011;24367;51.640;9.566;2023-05-06T07:33:03;3.40;;;1.30;;
38609;SDS011;24367;51.640;9.566;2023-05-06T07:35:29;5.22;;;1.00;;
38609;SDS011;24367;51.640;9.566;2023-05-06T07:37:55;4.43;;;1.10;;
38609;SDS011;24367;51.640;9.566;2023-05-06T07:40:23;4.20;;;1.05;;
38609;SDS011;24367;51.640;9.566;2023-05-06T07:42:49;2.60;;;1.00;;
38609;SDS011;24367;51.640;9.566;2023-05-06T07:45:16;6.60;;;1.20;;
38609;SDS011;24367;51.640;9.566;2023-05-06T07:47:43;3.33;;;1.23;;
38609;SDS011;24367;51.640;9.566;2023-05-06T07:50:10;3.45;;;1.23;;
38609;SDS011;24367;51.640;9.566;2023-05-06T07:52:36;3.53;;;0.98;;
38609;SDS011;24367;51.640;9.566;2023-05-06T07:55:03;3.35;;;1.20;;
38609;SDS011;24367;51.640;9.566;2023-05-06T07:57:31;6.15;;;1.00;;
38609;SDS011;24367;51.640;9.566;2023-05-06T07:59:58;2.28;;;1.00;;
38609;SDS011;24367;51.640;9.566;2023-05-06T08:02:24;1.88;;;1.10;;
38609;SDS011;24367;51.640;9.566;2023-05-06T08:04:51;2.78;;;1.10;;
38609;SDS011;24367;51.640;9.566;2023-05-06T08:07:18;3.60;;;0.90;;
38609;SDS011;24367;51.640;9.566;2023-05-06T08:09:45;2.92;;;0.80;;
38609;SDS011;24367;51.640;9.566;2023-05-06T08:12:11;1.88;;;0.90;;
38609;SDS011;24367;51.640;9.566;2023-05-06T08:14:41;1.85;;;1.02;;
38609;SDS011;24367;51.640;9.566;2023-05-06T08:17:07;3.17;;;0.90;;
38609;SDS011;24367;51.640;9.566;2023-05-06T08:19:34;8.25;;;1.00;;
38609;SDS011;24367;51.640;9.566;2023-05-06T08:22:00;3.42;;;1.27;;
38609;SDS011;24367;51.640;9.566;2023-05-06T08:24:27;2.55;;;0.80;;
38609;SDS011;24367;51.640;9.566;2023-05-06T08:26:53;1.77;;;1.02;;
38609;SDS011;24367;51.640;9.566;2023-05-06T08:29:20;2.50;;;0.90;;
38609;SDS011;24367;51.640;9.566;2023-05-06T08:31:47;1.67;;;0.98;;
38609;SDS011;24367;51.640;9.566;2023-05-06T08:34:14;3.72;;;1.50;;
38609;SDS011;24367;51.640;9.566;2023-05-06T08:36:42;3.28;;;0.90;;
38609;SDS011;24367;51.640;9.566;2023-05-06T08:39:08;2.75;;;1.00;;
38609;SDS011;24367;51.640;9.566;2023-05-06T08:41:35;4.90;;;0.80;;
38609;SDS011;24367;51.640;9.566;2023-05-06T08:44:03;3.75;;;1.17;;
38609;SDS011;24367;51.640;9.566;2023-05-06T08:46:30;3.75;;;0.90;;
38609;SDS011;24367;51.640;9.566;2023-05-06T08:48:58;9.13;;;1.00;;
38609;SDS011;24367;51.640;9.566;2023-05-06T08:51:26;5.15;;;0.90;;
38609;SDS011;24367;51.640;9.566;2023-05-06T08:53:53;3.60;;;1.10;;
38609;SDS011;24367;51.640;9.566;2023-05-06T08:56:20;3.00;;;1.25;;
38609;SDS011;24367;51.640;9.566;2023-05-06T08:58:50;6.70;;;1.73;;
38609;SDS011;24367;51.640;9.566;2023-05-06T09:01:17;7.82;;;1.98;;
38609;SDS011;24367;51.640;9.566;2023-05-06T09:03:43;5.88;;;2.35;;
38609;SDS011;24367;51.640;9.566;2023-05-06T09:06:12;4.85;;;2.35;;
38609;SDS011;24367;51.640;9.566;2023-05-06T09:08:38;5.57;;;1.95;;
38609;SDS011;24367;51.640;9.566;2023-05-06T09:11:17;16.52;;;2.35;;
38609;SDS011;24367;51.640;9.566;2023-05-06T09:13:45;5.38;;;2.08;;
38609;SDS011;24367;51.640;9.566;2023-05-06T09:16:14;12.55;;;1.98;;
38609;SDS011;24367;51.640;9.566;2023-05-06T09:18:51;4.15;;;1.48;;
38609;SDS011;24367;51.640;9.566;2023-05-06T09:21:19;3.70;;;1.45;;
38609;SDS011;24367;51.640;9.566;2023-05-06T09:23:45;4.93;;;1.65;;
38609;SDS011;24367;51.640;9.566;2023-05-06T09:26:12;3.35;;;1.65;;
38609;SDS011;24367;51.640;9.566;2023-05-06T09:28:38;5.85;;;1.50;;
38609;SDS011;24367;51.640;9.566;2023-05-06T09:31:13;4.22;;;1.42;;
38609;SDS011;24367;51.640;9.566;2023-05-06T09:33:39;5.72;;;1.50;;
38609;SDS011;24367;51.640;9.566;2023-05-06T09:36:06;6.40;;;1.50;;
38609;SDS011;24367;51.640;9.566;2023-05-06T09:38:36;5.38;;;1.40;;
38609;SDS011;24367;51.640;9.566;2023-05-06T09:41:02;3.33;;;1.40;;
38609;SDS011;24367;51.640;9.566;2023-05-06T09:43:29;3.03;;;1.38;;
38609;SDS011;24367;51.640;9.566;2023-05-06T09:45:55;3.72;;;1.40;;
38609;SDS011;24367;51.640;9.566;2023-05-06T09:48:26;3.65;;;1.30;;
38609;SDS011;24367;51.640;9.566;2023-05-06T09:50:56;3.72;;;1.38;;
38609;SDS011;24367;51.640;9.566;2023-05-06T09:53:22;3.53;;;1.35;;
38609;SDS011;24367;51.640;9.566;2023-05-06T09:55:50;5.50;;;1.30;;
38609;SDS011;24367;51.640;9.566;2023-05-06T09:58:18;5.45;;;1.58;;
38609;SDS011;24367;51.640;9.566;2023-05-06T10:00:45;2.22;;;1.27;;
38609;SDS011;24367;51.640;9.566;2023-05-06T10:03:12;2.28;;;1.45;;
38609;SDS011;24367;51.640;9.566;2023-05-06T10:05:39;3.67;;;1.30;;
38609;SDS011;24367;51.640;9.566;2023-05-06T10:08:06;2.83;;;1.55;;
38609;SDS011;24367;51.640;9.566;2023-05-06T10:10:33;2.58;;;1.30;;
38609;SDS011;24367;51.640;9.566;2023-05-06T10:13:02;3.25;;;1.30;;
38609;SDS011;24367;51.640;9.566;2023-05-06T10:15:29;3.70;;;1.42;;
38609;SDS011;24367;51.640;9.566;2023-05-06T10:17:57;3.20;;;1.27;;
38609;SDS011;24367;51.640;9.566;2023-05-06T10:20:25;3.78;;;1.50;;
38609;SDS011;24367;51.640;9.566;2023-05-06T10:22:56;2.85;;;1.33;;
38609;SDS011;24367;51.640;9.566;2023-05-06T10:25:29;3.90;;;1.67;;
38609;SDS011;24367;51.640;9.566;2023-05-06T10:27:57;3.70;;;1.27;;
38609;SDS011;24367;51.640;9.566;2023-05-06T10:30:25;3.63;;;1.52;;
38609;SDS011;24367;51.640;9.566;2023-05-06T10:32:51;2.15;;;1.00;;
38609;SDS011;24367;51.640;9.566;2023-05-06T10:35:21;4.53;;;1.23;;
38609;SDS011;24367;51.640;9.566;2023-05-06T10:37:52;8.05;;;1.60;;
38609;SDS011;24367;51.640;9.566;2023-05-06T10:40:21;3.05;;;1.20;;
38609;SDS011;24367;51.640;9.566;2023-05-06T10:42:47;5.00;;;1.52;;
38609;SDS011;24367;51.640;9.566;2023-05-06T10:45:15;4.55;;;1.35;;
38609;SDS011;24367;51.640;9.566;2023-05-06T10:50:34;2.95;;;1.00;;
38609;SDS011;24367;51.640;9.566;2023-05-06T10:53:01;4.63;;;1.23;;
38609;SDS011;24367;51.640;9.566;2023-05-06T10:55:28;4.78;;;1.50;;
38609;SDS011;24367;51.640;9.566;2023-05-06T10:57:55;2.13;;;1.17;;
38609;SDS011;24367;51.640;9.566;2023-05-06T11:00:24;2.65;;;1.30;;
38609;SDS011;24367;51.640;9.566;2023-05-06T11:02:55;5.38;;;1.10;;
38609;SDS011;24367;51.640;9.566;2023-05-06T11:05:23;2.72;;;1.48;;
38609;SDS011;24367;51.640;9.566;2023-05-06T11:07:51;3.63;;;1.25;;
38609;SDS011;24367;51.640;9.566;2023-05-06T11:10:30;3.45;;;1.42;;
38609;SDS011;24367;51.640;9.566;2023-05-06T11:12:57;3.60;;;1.20;;
38609;SDS011;24367;51.640;9.566;2023-05-06T11:15:36;7.47;;;1.20;;
38609;SDS011;24367;51.640;9.566;2023-05-06T11:24:06;3.33;;;1.25;;
38609;SDS011;24367;51.640;9.566;2023-05-06T11:26:34;6.53;;;1.40;;
38609;SDS011;24367;51.640;9.566;2023-05-06T11:29:00;7.78;;;1.35;;
38609;SDS011;24367;51.640;9.566;2023-05-06T11:31:28;6.30;;;1.50;;
38609;SDS011;24367;51.640;9.566;2023-05-06T11:33:55;3.47;;;1.42;;
38609;SDS011;24367;51.640;9.566;2023-05-06T11:36:24;4.07;;;1.20;;
38609;SDS011;24367;51.640;9.566;2023-05-06T11:38:53;7.43;;;1.30;;
38609;SDS011;24367;51.640;9.566;2023-05-06T11:41:21;6.03;;;1.50;;
38609;SDS011;24367;51.640;9.566;2023-05-06T11:43:48;3.75;;;1.40;;
38609;SDS011;24367;51.640;9.566;2023-05-06T11:46:16;5.57;;;1.38;;
38609;SDS011;24367;51.640;9.566;2023-05-06T11:48:43;2.70;;;1.08;;
38609;SDS011;24367;51.640;9.566;2023-05-06T11:51:09;10.00;;;1.70;;
38609;SDS011;24367;51.640;9.566;2023-05-06T11:53:36;3.97;;;1.33;;
38609;SDS011;24367;51.640;9.566;2023-05-06T11:56:05;4.03;;;1.23;;
38609;SDS011;24367;51.640;9.566;2023-05-06T11:58:32;3.95;;;1.00;;
38609;SDS011;24367;51.640;9.566;2023-05-06T12:00:59;3.72;;;1.48;;
38609;SDS011;24367;51.640;9.566;2023-05-06T12:03:26;1.90;;;1.02;;
38609;SDS011;24367;51.640;9.566;2023-05-06T12:05:54;4.68;;;1.17;;
38609;SDS011;24367;51.640;9.566;2023-05-06T12:08:21;6.82;;;1.30;;
38609;SDS011;24367;51.640;9.566;2023-05-06T12:10:49;2.05;;;1.10;;
38609;SDS011;24367;51.640;9.566;2023-05-06T12:13:17;2.95;;;1.10;;
38609;SDS011;24367;51.640;9.566;2023-05-06T12:15:44;5.90;;;1.20;;
38609;SDS011;24367;51.640;9.566;2023-05-06T12:18:11;2.20;;;1.20;;
38609;SDS011;24367;51.640;9.566;2023-05-06T12:20:38;2.97;;;1.33;;
38609;SDS011;24367;51.640;9.566;2023-05-06T12:23:04;4.13;;;1.30;;
38609;SDS011;24367;51.640;9.566;2023-05-06T12:25:31;3.90;;;1.27;;
38609;SDS011;24367;51.640;9.566;2023-05-06T12:27:57;2.58;;;1.15;;
38609;SDS011;24367;51.640;9.566;2023-05-06T12:30:29;2.95;;;1.27;;
38609;SDS011;24367;51.640;9.566;2023-05-06T12:32:56;4.18;;;1.10;;
38609;SDS011;24367;51.640;9.566;2023-05-06T12:35:26;3.90;;;1.20;;
38609;SDS011;24367;51.640;9.566;2023-05-06T12:37:52;3.70;;;1.15;;
38609;SDS011;24367;51.640;9.566;2023-05-06T12:40:19;3.75;;;1.30;;
38609;SDS011;24367;51.640;9.566;2023-05-06T12:42:52;1.80;;;0.90;;
38609;SDS011;24367;51.640;9.566;2023-05-06T12:45:19;3.15;;;1.20;;
38609;SDS011;24367;51.640;9.566;2023-05-06T12:47:54;2.03;;;1.00;;
38609;SDS011;24367;51.640;9.566;2023-05-06T12:50:31;2.90;;;1.10;;
38609;SDS011;24367;51.640;9.566;2023-05-06T12:52:58;2.80;;;1.13;;
38609;SDS011;24367;51.640;9.566;2023-05-06T12:55:25;4.60;;;1.50;;
38609;SDS011;24367;51.640;9.566;2023-05-06T12:57:51;2.40;;;1.40;;
38609;SDS011;24367;51.640;9.566;2023-05-06T13:00:19;2.03;;;1.02;;
38609;SDS011;24367;51.640;9.566;2023-05-06T13:02:46;2.70;;;1.27;;
38609;SDS011;24367;51.640;9.566;2023-05-06T13:05:13;3.28;;;1.20;;
38609;SDS011;24367;51.640;9.566;2023-05-06T13:07:40;3.67;;;1.20;;
38609;SDS011;24367;51.640;9.566;2023-05-06T13:10:07;2.35;;;1.10;;
38609;SDS011;24367;51.640;9.566;2023-05-06T13:12:34;1.85;;;1.05;;
38609;SDS011;24367;51.640;9.566;2023-05-06T13:15:01;3.42;;;1.23;;
38609;SDS011;24367;51.640;9.566;2023-05-06T13:17:28;4.25;;;1.17;;
38609;SDS011;24367;51.640;9.566;2023-05-06T13:19:55;3.88;;;1.20;;
38609;SDS011;24367;51.640;9.566;2023-05-06T13:22:23;5.07;;;1.10;;
38609;SDS011;24367;51.640;9.566;2023-05-06T13:24:50;4.03;;;0.98;;
38609;SDS011;24367;51.640;9.566;2023-05-06T13:27:16;3.85;;;1.05;;
38609;SDS011;24367;51.640;9.566;2023-05-06T13:29:43;3.85;;;1.45;;
38609;SDS011;24367;51.640;9.566;2023-05-06T13:32:09;3.53;;;0.95;;
38609;SDS011;24367;51.640;9.566;2023-05-06T13:34:36;3.95;;;1.23;;
38609;SDS011;24367;51.640;9.566;2023-05-06T13:37:02;3.10;;;1.10;;
38609;SDS011;24367;51.640;9.566;2023-05-06T13:39:30;2.17;;;0.80;;
38609;SDS011;24367;51.640;9.566;2023-05-06T13:41:56;5.18;;;1.10;;
38609;SDS011;24367;51.640;9.566;2023-05-06T13:44:23;3.53;;;0.98;;
38609;SDS011;24367;51.640;9.566;2023-05-06T13:46:49;3.47;;;1.00;;
38609;SDS011;24367;51.640;9.566;2023-05-06T13:49:17;3.95;;;0.95;;
38609;SDS011;24367;51.640;9.566;2023-05-06T13:51:43;4.68;;;1.27;;
38609;SDS011;24367;51.640;9.566;2023-05-06T13:54:10;3.50;;;0.90;;
38609;SDS011;24367;51.640;9.566;2023-05-06T13:56:38;3.78;;;1.38;;
38609;SDS011;24367;51.640;9.566;2023-05-06T13:59:05;5.43;;;1.25;;
38609;SDS011;24367;51.640;9.566;2023-05-06T14:01:32;3.90;;;1.05;;
38609;SDS011;24367;51.640;9.566;2023-05-06T14:03:59;5.85;;;1.05;;
38609;SDS011;24367;51.640;9.566;2023-05-06T14:06:25;3.95;;;1.00;;
38609;SDS011;24367;51.640;9.566;2023-05-06T14:08:52;2.83;;;1.10;;
38609;SDS011;24367;51.640;9.566;2023-05-06T14:11:19;2.85;;;1.10;;
38609;SDS011;24367;51.640;9.566;2023-05-06T14:13:48;2.85;;;0.90;;
38609;SDS011;24367;51.640;9.566;2023-05-06T14:16:14;3.13;;;1.02;;
38609;SDS011;24367;51.640;9.566;2023-05-06T14:18:41;2.85;;;1.08;;
38609;SDS011;24367;51.640;9.566;2023-05-06T14:21:07;2.55;;;0.90;;
38609;SDS011;24367;51.640;9.566;2023-05-06T14:23:34;2.53;;;1.10;;
38609;SDS011;24367;51.640;9.566;2023-05-06T14:26:01;1.60;;;0.80;;
38609;SDS011;24367;51.640;9.566;2023-05-06T14:28:28;1.83;;;1.00;;
38609;SDS011;24367;51.640;9.566;2023-05-06T14:30:56;3.67;;;1.15;;
38609;SDS011;24367;51.640;9.566;2023-05-06T14:33:23;3.80;;;1.08;;
38609;SDS011;24367;51.640;9.566;2023-05-06T14:35:50;4.07;;;0.80;;
38609;SDS011;24367;51.640;9.566;2023-05-06T14:38:16;2.88;;;1.02;;
38609;SDS011;24367;51.640;9.566;2023-05-06T14:40:43;2.92;;;0.90;;
38609;SDS011;24367;51.640;9.566;2023-05-06T14:43:09;4.30;;;1.20;;
38609;SDS011;24367;51.640;9.566;2023-05-06T14:45:36;3.78;;;1.10;;
38609;SDS011;24367;51.640;9.566;2023-05-06T14:48:04;2.08;;;0.88;;
38609;SDS011;24367;51.640;9.566;2023-05-06T14:50:30;1.23;;;0.60;;
38609;SDS011;24367;51.640;9.566;2023-05-06T14:52:57;2.30;;;0.77;;
38609;SDS011;24367;51.640;9.566;2023-05-06T14:55:23;2.53;;;0.80;;
38609;SDS011;24367;51.640;9.566;2023-05-06T14:57:50;2.40;;;1.00;;
38609;SDS011;24367;51.640;9.566;2023-05-06T15:00:16;2.47;;;0.90;;
38609;SDS011;24367;51.640;9.566;2023-05-06T15:02:44;3.50;;;1.10;;